Airfield :
LOGIN :

Register | Disclaimer

   EN    FR    IT 

 










Legend :    VFR   Marginal VFR   IFR   Intensive IFR   Very Intensive IFR
Visi :
Ceiling :
>= 8 km
>= 3000ft
5 to 8 km
1000 to 3000 ft
1500m to 5 km
500 to 1000 ft
800 to 1500m
200 to 500 ft
< 800m
< 200 ft
Symbols :   Thunderstorms  Fog  Heavy snow  Heavy precipitations  Wind > 20 kt
SIGMETs :     Misc.  Thunderstorms  Icing  Turbulence  Mountain Waves  Volcanic Ashes






- Airport Elevation : 768 ft
- IATA code : MXP


LIMC - Milano Malpensa

CURRENT METAR :
  • 181120Z 13004KT 100V180 9999 SCT018 BKN035 17/14 Q1018 NOSIG

EXPIRED METARs :
  • 181050Z 12003KT 050V160 9999 SCT020 BKN070 17/14 Q1018 NOSIG
  • 181020Z VRB02KT 9999 SCT017 BKN070 17/13 Q1019 NOSIG
  • 180950Z 08003KT 040V110 9999 BKN070 16/13 Q1018 NOSIG
  • 180920Z 03003KT 010V070 9999 FEW045 SCT055 BKN070 16/13 Q1019 NOSIG
  • 180850Z VRB02KT 9999 SCT040 BKN055 16/14 Q1019 NOSIG
  • 180820Z 08003KT 040V110 9999 BKN070 15/14 Q1018 NOSIG

TAF TAF LIMC
Valid from the 18 at 06:00 until the 19 at 12:00 UTC


180500Z 1806/1912 VRB05KT 6000 SCT020 BKN040
TEMPO 1820/1912 3000 RA



MET'MAP, your aeronautical weather chart ! - Copyright ORBIFLY December 2007 - Disclaimer

ORBIFLY MET'MAP TEAM :

Programming & Development : Alexandra Zaïnal
Concept & Development : Baudouin d'Aumeries
Co-Development & Prog : Marc-Olivier Méhu
Technical & hardware support : Manuel Goepfert

Contact : metmap@orbifly.com




SOURCES & CREDITS :

   NOAA